Time;durP1;ratioP1;P1;durP2;ratioP2;P2;SDS_P1;SDS_P2;PMS_P1;PMS_P2;Temp;Humidity;BMP_temperature;BMP_pressure;BME280_temperature;BME280_humidity;BME280_pressure;Samples;Min_cycle;Max_cycle;Signal;HPM_P1;HPM_P2
2022/11/01 00:04:04;;;;;;;19.92;13.43;;;;;;;;;;9965675;29;20080;-68
2022/11/01 00:09:03;;;;;;;23.80;14.35;;;;;;;;;;9964464;29;20068;-68
2022/11/01 00:14:01;;;;;;;21.48;14.93;;;;;;;;;;9962931;29;20531;-68
2022/11/01 00:19:01;;;;;;;23.42;14.25;;;;;;;;;;9963890;29;20072;-68
2022/11/01 00:23:59;;;;;;;19.73;12.98;;;;;;;;;;9976547;29;20049;-67
2022/11/01 00:28:57;;;;;;;21.73;12.80;;;;;;;;;;9963666;29;20519;-68
2022/11/01 00:33:56;;;;;;;21.30;10.88;;;;;;;;;;9962874;29;20080;-69
2022/11/01 00:38:55;;;;;;;15.43;10.70;;;;;;;;;;9960013;29;20098;-68
2022/11/01 00:43:53;;;;;;;14.07;8.82;;;;;;;;;;9959505;29;20075;-69
2022/11/01 00:48:52;;;;;;;13.45;7.25;;;;;;;;;;9946682;29;20093;-68
2022/11/01 00:53:51;;;;;;;8.02;6.20;;;;;;;;;;9966531;29;20088;-69
2022/11/01 00:58:51;;;;;;;10.35;6.68;;;;;;;;;;9966593;29;20080;-68
2022/11/01 01:03:49;;;;;;;12.93;7.18;;;;;;;;;;9963237;29;20056;-69
2022/11/01 01:08:47;;;;;;;9.02;6.28;;;;;;;;;;9975672;29;20356;-68
2022/11/01 01:13:45;;;;;;;7.57;6.18;;;;;;;;;;9936798;29;20067;-68
2022/11/01 01:18:45;;;;;;;8.45;6.20;;;;;;;;;;9978023;29;20419;-68
2022/11/01 01:23:47;;;;;;;13.30;7.45;;;;;;;;;;9961874;29;20064;-68
2022/11/01 01:28:45;;;;;;;7.75;6.43;;;;;;;;;;9962939;29;20064;-68
2022/11/01 01:33:45;;;;;;;9.82;7.22;;;;;;;;;;9974670;29;20069;-68
2022/11/01 01:38:44;;;;;;;12.45;7.43;;;;;;;;;;9973858;29;20052;-68
2022/11/01 01:43:44;;;;;;;9.88;6.72;;;;;;;;;;9965308;29;20053;-68
2022/11/01 01:48:43;;;;;;;8.70;6.35;;;;;;;;;;9975094;29;20072;-69
2022/11/01 01:53:44;;;;;;;10.90;7.57;;;;;;;;;;9947928;29;20080;-68
2022/11/01 01:58:44;;;;;;;11.45;7.22;;;;;;;;;;9959024;29;20079;-68
2022/11/01 02:03:43;;;;;;;9.23;7.10;;;;;;;;;;9959873;29;20099;-68
2022/11/01 02:08:43;;;;;;;10.70;5.97;;;;;;;;;;9960533;29;20076;-68
2022/11/01 02:13:42;;;;;;;20.48;10.80;;;;;;;;;;9959640;29;20090;-67
2022/11/01 02:18:44;;;;;;;13.18;9.52;;;;;;;;;;9959341;29;20083;-67
2022/11/01 02:24:00;;;;;;;17.33;8.80;;;;;;;;;;9941441;29;20521;-69
2022/11/01 02:29:10;;;;;;;16.27;9.75;;;;;;;;;;9959715;29;20072;-68
2022/11/01 02:34:14;;;;;;;13.02;9.35;;;;;;;;;;9958955;29;20087;-69
2022/11/01 02:39:18;;;;;;;21.08;8.15;;;;;;;;;;9959662;29;20448;-69
2022/11/01 02:44:18;;;;;;;11.25;8.98;;;;;;;;;;9958692;29;20092;-68
2022/11/01 02:49:19;;;;;;;16.42;9.52;;;;;;;;;;9960323;29;20487;-69
2022/11/01 02:54:19;;;;;;;13.75;8.70;;;;;;;;;;9958434;29;20596;-69
2022/11/01 02:59:19;;;;;;;15.40;8.13;;;;;;;;;;9955500;29;20103;-68
2022/11/01 03:04:19;;;;;;;14.00;8.95;;;;;;;;;;9959346;29;20103;-69
2022/11/01 03:09:17;;;;;;;17.05;11.20;;;;;;;;;;9965726;29;20084;-68
2022/11/01 03:14:21;;;;;;;9.73;8.73;;;;;;;;;;9959200;29;20463;-69
2022/11/01 03:19:27;;;;;;;13.50;7.88;;;;;;;;;;9942260;29;20538;-69
2022/11/01 03:24:27;;;;;;;12.70;8.77;;;;;;;;;;9951216;29;20075;-68
2022/11/01 03:29:26;;;;;;;29.00;25.75;;;;;;;;;;9965932;29;20075;-69
2022/11/01 03:34:26;;;;;;;13.38;10.45;;;;;;;;;;9949304;29;20068;-69
2022/11/01 03:39:27;;;;;;;11.50;9.63;;;;;;;;;;9950735;29;20120;-69
2022/11/01 03:44:26;;;;;;;10.60;8.43;;;;;;;;;;9950348;29;20076;-68
2022/11/01 03:49:26;;;;;;;12.63;10.05;;;;;;;;;;9965332;29;20049;-68
2022/11/01 03:54:26;;;;;;;16.23;13.43;;;;;;;;;;9958165;29;20087;-68
2022/11/01 03:59:24;;;;;;;21.13;16.50;;;;;;;;;;9965672;29;20083;-68
2022/11/01 04:04:22;;;;;;;25.02;18.48;;;;;;;;;;9965737;29;20060;-68
2022/11/01 04:09:22;;;;;;;23.02;14.27;;;;;;;;;;9957108;29;20076;-69
2022/11/01 04:24:51;;;;;;;;;;;;;;;;;;9957286;29;20538;-69
2022/11/01 04:29:50;;;;;;;20.75;13.65;;;;;;;;;;9964350;29;19962;-68
2022/11/01 04:34:48;;;;;;;17.92;12.85;;;;;;;;;;9963374;29;20068;-69
2022/11/01 04:39:47;;;;;;;17.85;12.52;;;;;;;;;;9962486;29;20431;-69
2022/11/01 04:44:45;;;;;;;17.35;12.25;;;;;;;;;;9961856;29;20531;-68
2022/11/01 04:49:45;;;;;;;16.75;12.68;;;;;;;;;;9962814;29;20087;-68
2022/11/01 04:54:43;;;;;;;14.55;10.82;;;;;;;;;;9963254;29;20083;-68
2022/11/01 04:59:42;;;;;;;11.02;9.77;;;;;;;;;;9962229;29;20048;-68
2022/11/01 05:04:40;;;;;;;12.63;9.45;;;;;;;;;;9962648;29;20089;-67
2022/11/01 05:09:39;;;;;;;11.23;9.05;;;;;;;;;;9962438;29;20064;-68
2022/11/01 05:14:38;;;;;;;13.15;9.38;;;;;;;;;;9961963;29;20064;-68
2022/11/01 05:19:36;;;;;;;14.00;10.73;;;;;;;;;;9959443;29;20075;-69
2022/11/01 05:24:34;;;;;;;16.63;10.95;;;;;;;;;;9961848;29;20056;-69
2022/11/01 05:29:34;;;;;;;22.20;10.23;;;;;;;;;;9959869;29;20084;-69
2022/11/01 05:34:35;;;;;;;16.35;10.77;;;;;;;;;;9961570;29;20072;-69
2022/11/01 05:39:33;;;;;;;14.60;10.07;;;;;;;;;;9965022;29;20264;-69
2022/11/01 05:44:31;;;;;;;11.00;9.32;;;;;;;;;;9960460;29;20052;-69
2022/11/01 05:49:31;;;;;;;13.50;9.10;;;;;;;;;;9930925;29;20072;-67
2022/11/01 05:54:29;;;;;;;14.82;11.77;;;;;;;;;;9958448;29;20072;-68
2022/11/01 05:59:28;;;;;;;23.25;15.77;;;;;;;;;;9958082;29;20064;-68
2022/11/01 06:04:29;;;;;;;27.00;17.40;;;;;;;;;;9956918;29;20075;-70
2022/11/01 06:09:36;;;;;;;38.97;21.65;;;;;;;;;;9957870;29;20076;-68
2022/11/01 06:14:34;;;;;;;36.70;21.42;;;;;;;;;;9958960;29;20079;-68
2022/11/01 06:19:37;;;;;;;33.22;20.83;;;;;;;;;;9962324;29;20084;-69
2022/11/01 06:24:36;;;;;;;39.47;20.80;;;;;;;;;;9959427;29;20075;-69
2022/11/01 06:29:35;;;;;;;32.35;20.48;;;;;;;;;;9957225;29;20075;-68
2022/11/01 06:34:33;;;;;;;27.73;18.38;;;;;;;;;;9956482;29;20079;-68
2022/11/01 06:39:31;;;;;;;23.83;17.45;;;;;;;;;;9957198;29;20158;-68
2022/11/01 06:44:31;;;;;;;26.00;19.63;;;;;;;;;;9954692;29;20080;-67
2022/11/01 06:49:29;;;;;;;31.35;18.63;;;;;;;;;;9936538;29;20094;-68
2022/11/01 06:54:27;;;;;;;31.65;18.95;;;;;;;;;;9955040;29;20545;-68
2022/11/01 06:59:25;;;;;;;34.42;20.13;;;;;;;;;;9958338;29;20036;-68
2022/11/01 07:04:27;;;;;;;41.85;23.60;;;;;;;;;;9958392;29;20060;-67
2022/11/01 07:09:25;;;;;;;51.13;27.05;;;;;;;;;;9947632;29;20095;-68
2022/11/01 07:14:24;;;;;;;49.17;31.45;;;;;;;;;;9949874;29;20064;-68
2022/11/01 07:19:22;;;;;;;48.42;24.60;;;;;;;;;;9956756;29;20095;-68
2022/11/01 07:24:22;;;;;;;44.92;21.63;;;;;;;;;;9956311;29;20077;-68
2022/11/01 07:29:20;;;;;;;30.20;19.38;;;;;;;;;;9948355;29;20076;-68
2022/11/01 07:34:18;;;;;;;31.05;21.55;;;;;;;;;;9928184;29;20083;-67
2022/11/01 07:39:17;;;;;;;36.92;20.88;;;;;;;;;;9950385;29;20069;-68
2022/11/01 07:44:16;;;;;;;37.92;21.02;;;;;;;;;;9945212;29;20079;-68
2022/11/01 07:49:14;;;;;;;45.65;21.42;;;;;;;;;;9951477;29;20504;-67
2022/11/01 07:54:12;;;;;;;38.88;24.88;;;;;;;;;;9954229;29;20565;-66
2022/11/01 07:59:11;;;;;;;43.25;21.52;;;;;;;;;;9958958;29;20082;-68
2022/11/01 08:04:10;;;;;;;39.22;21.17;;;;;;;;;;9958691;29;20072;-69
2022/11/01 08:09:09;;;;;;;33.83;20.30;;;;;;;;;;9960278;29;20079;-67
2022/11/01 08:14:08;;;;;;;40.55;19.02;;;;;;;;;;9955454;29;20072;-68
2022/11/01 08:19:11;;;;;;;33.70;19.67;;;;;;;;;;9966663;29;20083;-69
2022/11/01 08:24:10;;;;;;;48.25;21.55;;;;;;;;;;9959104;29;20099;-69
2022/11/01 08:29:08;;;;;;;49.25;19.30;;;;;;;;;;9932548;29;20079;-68
2022/11/01 08:34:07;;;;;;;39.25;21.13;;;;;;;;;;9961156;29;20071;-69
2022/11/01 08:39:14;;;;;;;28.00;20.70;;;;;;;;;;9965594;29;20071;-69
2022/11/01 08:44:12;;;;;;;30.52;20.05;;;;;;;;;;9959435;29;20060;-69
2022/11/01 08:49:11;;;;;;;42.88;21.55;;;;;;;;;;9959405;29;20076;-69
2022/11/01 08:54:11;;;;;;;49.88;27.80;;;;;;;;;;9958716;29;20095;-69
2022/11/01 08:59:10;;;;;;;35.00;20.67;;;;;;;;;;9963233;29;20064;-70
2022/11/01 09:04:11;;;;;;;41.47;21.75;;;;;;;;;;9942258;29;20068;-68
2022/11/01 09:09:10;;;;;;;49.83;21.40;;;;;;;;;;9951859;29;20080;-68
2022/11/01 09:14:09;;;;;;;36.47;18.27;;;;;;;;;;9948069;29;20083;-69
2022/11/01 09:19:08;;;;;;;38.90;19.50;;;;;;;;;;9955086;29;20072;-69
2022/11/01 09:24:06;;;;;;;32.67;17.40;;;;;;;;;;9950526;29;20558;-69
2022/11/01 09:29:04;;;;;;;37.05;17.05;;;;;;;;;;9959991;29;20083;-69
2022/11/01 09:34:04;;;;;;;35.45;17.50;;;;;;;;;;9970238;29;20525;-68
2022/11/01 09:39:02;;;;;;;39.05;17.50;;;;;;;;;;9971027;29;20076;-69
2022/11/01 09:44:02;;;;;;;21.98;12.35;;;;;;;;;;9951396;29;20076;-69
2022/11/01 09:49:02;;;;;;;28.88;16.00;;;;;;;;;;9952977;29;20067;-70
2022/11/01 09:54:07;;;;;;;16.67;11.20;;;;;;;;;;9956821;29;20084;-70
2022/11/01 09:59:08;;;;;;;16.55;10.55;;;;;;;;;;9939725;29;20085;-69
2022/11/01 10:04:18;;;;;;;17.67;9.68;;;;;;;;;;9956476;29;20511;-69
2022/11/01 10:09:23;;;;;;;23.45;9.93;;;;;;;;;;9956028;29;20102;-69
2022/11/01 10:14:28;;;;;;;21.50;13.93;;;;;;;;;;9956658;29;20083;-68
2022/11/01 10:19:32;;;;;;;18.23;7.82;;;;;;;;;;9960919;29;20079;-69
2022/11/01 10:24:34;;;;;;;11.15;7.38;;;;;;;;;;9960840;29;20224;-69
2022/11/01 10:29:36;;;;;;;14.57;6.53;;;;;;;;;;9953256;29;20040;-69
2022/11/01 10:34:35;;;;;;;12.25;7.97;;;;;;;;;;9944569;29;20079;-68
2022/11/01 10:39:38;;;;;;;13.18;7.28;;;;;;;;;;9942637;29;20136;-69
2022/11/01 10:44:58;;;;;;;10.93;7.10;;;;;;;;;;9956455;29;20079;-70
2022/11/01 10:49:59;;;;;;;10.48;6.30;;;;;;;;;;9954702;29;20069;-69
2022/11/01 10:55:05;;;;;;;16.30;8.27;;;;;;;;;;9959350;29;20084;-69
2022/11/01 11:00:05;;;;;;;10.20;7.50;;;;;;;;;;9958728;29;20107;-68
2022/11/01 11:05:04;;;;;;;10.82;7.93;;;;;;;;;;9956759;29;20468;-68
2022/11/01 11:10:03;;;;;;;13.02;7.80;;;;;;;;;;9954711;29;20079;-68
2022/11/01 11:15:05;;;;;;;16.63;7.70;;;;;;;;;;9956138;29;20083;-69
2022/11/01 11:20:04;;;;;;;11.05;7.07;;;;;;;;;;9956327;29;20076;-70
2022/11/01 11:25:03;;;;;;;11.35;8.23;;;;;;;;;;9957089;29;20068;-69
2022/11/01 11:30:04;;;;;;;10.88;7.28;;;;;;;;;;9965389;29;20080;-68
2022/11/01 11:35:07;;;;;;;13.00;8.02;;;;;;;;;;9968757;29;20499;-68
2022/11/01 11:40:18;;;;;;;14.18;7.75;;;;;;;;;;9961531;29;20095;-68
2022/11/01 11:45:19;;;;;;;15.80;9.13;;;;;;;;;;9970005;29;20149;-69
2022/11/01 11:50:25;;;;;;;12.07;7.75;;;;;;;;;;9971471;29;20084;-68
2022/11/01 11:55:27;;;;;;;14.48;10.15;;;;;;;;;;9963281;29;20076;-68
2022/11/01 12:00:28;;;;;;;18.33;8.32;;;;;;;;;;9963323;29;20064;-68
2022/11/01 12:05:27;;;;;;;14.48;8.93;;;;;;;;;;9967266;29;20716;-70
2022/11/01 12:10:30;;;;;;;14.48;9.40;;;;;;;;;;9963924;29;20068;-69
2022/11/01 12:15:31;;;;;;;12.70;8.57;;;;;;;;;;9961525;29;20095;-68
2022/11/01 12:20:38;;;;;;;17.25;8.25;;;;;;;;;;9951677;29;20091;-68
2022/11/01 12:25:37;;;;;;;9.95;6.82;;;;;;;;;;9961856;29;20068;-68
2022/11/01 12:30:37;;;;;;;11.20;7.03;;;;;;;;;;9965176;29;20080;-68
2022/11/01 12:35:38;;;;;;;17.02;7.93;;;;;;;;;;9960470;29;20087;-68
2022/11/01 12:40:36;;;;;;;10.82;6.10;;;;;;;;;;9961511;29;20095;-68
2022/11/01 12:45:43;;;;;;;15.40;7.18;;;;;;;;;;9961864;29;20068;-68
2022/11/01 12:50:44;;;;;;;12.13;7.75;;;;;;;;;;9957389;29;20503;-68
2022/11/01 12:55:43;;;;;;;20.35;12.50;;;;;;;;;;9958411;29;20080;-69
2022/11/01 13:00:47;;;;;;;17.50;12.65;;;;;;;;;;9959348;29;20073;-70
2022/11/01 13:05:49;;;;;;;16.77;8.98;;;;;;;;;;9963821;29;20084;-69
2022/11/01 13:10:48;;;;;;;14.52;8.73;;;;;;;;;;9963390;29;20410;-68
2022/11/01 13:15:54;;;;;;;10.88;7.93;;;;;;;;;;9963191;29;20083;-69
2022/11/01 13:20:55;;;;;;;12.85;8.27;;;;;;;;;;9963081;29;20468;-68
2022/11/01 13:25:58;;;;;;;15.43;8.77;;;;;;;;;;9960485;29;20064;-69
2022/11/01 13:31:02;;;;;;;10.55;9.45;;;;;;;;;;9960520;29;20072;-70
2022/11/01 13:36:03;;;;;;;12.43;8.97;;;;;;;;;;9961015;29;20079;-70
2022/11/01 13:41:07;;;;;;;18.92;10.25;;;;;;;;;;9961210;29;20079;-70
2022/11/01 13:46:20;;;;;;;18.17;14.63;;;;;;;;;;9960549;29;20068;-69
2022/11/01 13:51:24;;;;;;;15.30;9.65;;;;;;;;;;9958968;29;20072;-68
2022/11/01 13:56:26;;;;;;;15.10;8.77;;;;;;;;;;9964217;29;20080;-69
2022/11/01 14:01:34;;;;;;;14.65;8.98;;;;;;;;;;9960416;29;20503;-69
2022/11/01 14:06:35;;;;;;;17.70;9.90;;;;;;;;;;9952424;29;20075;-68
2022/11/01 14:11:44;;;;;;;14.05;10.30;;;;;;;;;;9960348;29;20507;-70
2022/11/01 14:16:43;;;;;;;18.80;13.18;;;;;;;;;;9958460;29;20084;-68
2022/11/01 14:21:43;;;;;;;23.95;11.27;;;;;;;;;;9959714;29;20068;-70
2022/11/01 14:26:46;;;;;;;17.17;11.70;;;;;;;;;;9958282;29;20076;-68
2022/11/01 14:31:47;;;;;;;25.60;11.57;;;;;;;;;;9960987;29;20068;-68
2022/11/01 14:36:49;;;;;;;22.23;9.75;;;;;;;;;;9970657;29;20520;-69
2022/11/01 14:41:48;;;;;;;17.20;10.10;;;;;;;;;;9958803;29;20082;-69
2022/11/01 14:46:56;;;;;;;22.63;12.25;;;;;;;;;;9958091;29;20103;-70
2022/11/01 14:51:56;;;;;;;20.48;12.15;;;;;;;;;;9940608;29;20092;-69
2022/11/01 14:56:55;;;;;;;17.90;8.70;;;;;;;;;;9956902;29;20084;-68
2022/11/01 15:01:56;;;;;;;31.30;22.85;;;;;;;;;;9956411;29;20079;-68
2022/11/01 15:07:00;;;;;;;41.80;26.38;;;;;;;;;;9951539;29;20475;-69
2022/11/01 15:12:03;;;;;;;29.83;17.75;;;;;;;;;;9958453;29;20700;-69
2022/11/01 15:17:03;;;;;;;15.70;9.15;;;;;;;;;;9945543;29;20087;-69
2022/11/01 15:22:04;;;;;;;19.55;9.18;;;;;;;;;;9942406;29;20198;-69
2022/11/01 15:27:07;;;;;;;23.38;15.10;;;;;;;;;;9957829;29;20410;-68
2022/11/01 15:32:18;;;;;;;24.33;11.40;;;;;;;;;;9957840;29;20084;-69
2022/11/01 15:37:20;;;;;;;26.70;12.45;;;;;;;;;;9968933;29;20162;-69
2022/11/01 15:42:22;;;;;;;29.40;12.63;;;;;;;;;;9955245;29;20072;-68
2022/11/01 15:47:23;;;;;;;24.60;13.75;;;;;;;;;;9954740;29;20478;-68
2022/11/01 15:52:23;;;;;;;21.33;11.07;;;;;;;;;;9956616;29;20091;-69
2022/11/01 15:57:22;;;;;;;31.42;10.30;;;;;;;;;;9957294;29;20523;-69
2022/11/01 16:02:24;;;;;;;26.63;9.13;;;;;;;;;;9956702;29;20044;-69
2022/11/01 16:07:23;;;;;;;13.38;8.25;;;;;;;;;;9980373;29;20569;-69
2022/11/01 16:12:26;;;;;;;34.78;14.32;;;;;;;;;;9970802;29;20495;-68
2022/11/01 16:17:31;;;;;;;32.83;10.52;;;;;;;;;;9964859;29;20080;-69
2022/11/01 16:22:33;;;;;;;10.90;7.95;;;;;;;;;;9965165;29;20095;-70
2022/11/01 16:27:32;;;;;;;16.92;9.35;;;;;;;;;;9969768;29;20080;-69
2022/11/01 16:32:32;;;;;;;24.65;14.60;;;;;;;;;;9969213;29;20068;-70
2022/11/01 16:37:36;;;;;;;12.05;7.63;;;;;;;;;;9969348;29;20458;-69
2022/11/01 16:42:34;;;;;;;11.27;6.33;;;;;;;;;;9976905;29;20148;-69
2022/11/01 16:47:34;;;;;;;25.25;7.10;;;;;;;;;;9966724;29;20492;-69
2022/11/01 16:52:34;;;;;;;39.95;12.50;;;;;;;;;;9969932;29;20088;-70
2022/11/01 16:57:32;;;;;;;29.60;12.18;;;;;;;;;;9953956;29;20084;-68
2022/11/01 17:02:30;;;;;;;17.58;9.48;;;;;;;;;;9962853;29;20084;-67
2022/11/01 17:07:30;;;;;;;13.85;5.78;;;;;;;;;;9962991;29;20079;-68
2022/11/01 17:12:29;;;;;;;11.98;6.07;;;;;;;;;;9961002;29;20068;-67
2022/11/01 17:17:27;;;;;;;10.60;5.47;;;;;;;;;;9944862;29;20090;-68
2022/11/01 17:22:33;;;;;;;11.85;5.97;;;;;;;;;;9959751;29;20502;-69
2022/11/01 17:27:33;;;;;;;14.05;7.15;;;;;;;;;;9959391;29;20079;-68
2022/11/01 17:32:31;;;;;;;18.63;6.68;;;;;;;;;;9960735;29;20072;-67
2022/11/01 17:37:31;;;;;;;14.18;6.57;;;;;;;;;;9954955;29;20099;-69
2022/11/01 17:42:29;;;;;;;10.02;6.32;;;;;;;;;;9959528;29;20075;-69
2022/11/01 17:47:28;;;;;;;11.55;6.22;;;;;;;;;;9959954;29;20075;-69
2022/11/01 17:52:27;;;;;;;13.75;6.00;;;;;;;;;;9960004;29;20084;-68
2022/11/01 17:57:25;;;;;;;11.80;6.35;;;;;;;;;;9960413;29;20091;-69
2022/11/01 18:02:24;;;;;;;7.53;5.63;;;;;;;;;;9958770;29;20071;-69
2022/11/01 18:07:24;;;;;;;9.15;6.90;;;;;;;;;;9957998;29;20459;-69
2022/11/01 18:12:24;;;;;;;16.23;9.20;;;;;;;;;;9957886;29;20541;-69
2022/11/01 18:17:29;;;;;;;9.32;6.60;;;;;;;;;;9956462;29;20514;-69
2022/11/01 18:22:31;;;;;;;12.90;7.93;;;;;;;;;;9955976;29;20064;-69
2022/11/01 18:27:32;;;;;;;14.27;7.68;;;;;;;;;;9960959;29;20060;-70
2022/11/01 18:32:33;;;;;;;13.07;7.60;;;;;;;;;;9970730;29;20095;-68
2022/11/01 18:37:39;;;;;;;12.02;7.38;;;;;;;;;;9957123;29;20084;-67
2022/11/01 18:42:38;;;;;;;18.80;9.50;;;;;;;;;;9952327;29;20076;-68
2022/11/01 18:47:41;;;;;;;15.35;8.75;;;;;;;;;;9949976;29;20068;-68
2022/11/01 18:52:41;;;;;;;14.75;8.95;;;;;;;;;;9946850;29;20082;-70
2022/11/01 18:57:39;;;;;;;14.23;8.93;;;;;;;;;;9959780;29;20086;-69
2022/11/01 19:02:38;;;;;;;16.85;9.65;;;;;;;;;;9953269;29;20098;-69
2022/11/01 19:07:36;;;;;;;13.65;7.78;;;;;;;;;;9952035;29;20075;-69
2022/11/01 19:12:56;;;;;;;18.08;9.00;;;;;;;;;;9948468;29;20072;-69
2022/11/01 19:17:56;;;;;;;17.73;8.05;;;;;;;;;;9951886;29;20071;-68
2022/11/01 19:22:56;;;;;;;17.10;9.15;;;;;;;;;;9950525;29;20075;-70
2022/11/01 19:27:57;;;;;;;15.10;8.82;;;;;;;;;;9951550;29;20072;-69
2022/11/01 19:32:56;;;;;;;15.02;9.70;;;;;;;;;;9953800;29;20083;-68
2022/11/01 19:37:55;;;;;;;20.33;9.75;;;;;;;;;;9953995;29;20456;-68
2022/11/01 19:42:53;;;;;;;20.50;10.70;;;;;;;;;;9954037;29;20073;-68
2022/11/01 19:47:53;;;;;;;13.63;9.73;;;;;;;;;;9955521;29;20489;-67
2022/11/01 19:52:52;;;;;;;13.32;8.98;;;;;;;;;;9961057;29;20084;-68
2022/11/01 19:57:50;;;;;;;14.35;8.07;;;;;;;;;;9961512;29;20079;-68
2022/11/01 20:02:49;;;;;;;18.05;9.18;;;;;;;;;;9960809;29;20460;-68
2022/11/01 20:07:49;;;;;;;12.93;7.75;;;;;;;;;;9961391;29;20518;-69
2022/11/01 20:12:48;;;;;;;13.02;7.18;;;;;;;;;;9962041;29;20079;-68
2022/11/01 20:17:46;;;;;;;10.85;7.47;;;;;;;;;;9962288;29;20088;-69
2022/11/01 20:22:46;;;;;;;12.27;7.63;;;;;;;;;;9960895;29;20079;-67
2022/11/01 20:28:05;;;;;;;12.38;7.88;;;;;;;;;;9958967;29;20478;-69
2022/11/01 20:33:03;;;;;;;15.55;7.78;;;;;;;;;;9962923;29;20510;-68
2022/11/01 20:38:02;;;;;;;8.23;7.00;;;;;;;;;;9962846;29;20083;-69
2022/11/01 20:43:00;;;;;;;10.88;6.57;;;;;;;;;;9962852;29;20080;-68
2022/11/01 20:48:00;;;;;;;9.70;6.80;;;;;;;;;;9960926;29;20076;-68
2022/11/01 20:52:58;;;;;;;12.27;6.88;;;;;;;;;;9960316;29;20068;-68
2022/11/01 20:57:56;;;;;;;8.48;6.03;;;;;;;;;;9960269;29;20083;-69
2022/11/01 21:02:55;;;;;;;17.45;7.63;;;;;;;;;;9960741;29;20515;-69
2022/11/01 21:07:57;;;;;;;11.52;7.40;;;;;;;;;;9961325;29;20076;-69
2022/11/01 21:12:55;;;;;;;10.55;7.72;;;;;;;;;;9961224;29;20162;-68
2022/11/01 21:17:56;;;;;;;11.73;7.57;;;;;;;;;;9961351;29;20068;-68
2022/11/01 21:22:59;;;;;;;10.40;6.45;;;;;;;;;;9963198;29;20780;-68
2022/11/01 21:27:57;;;;;;;13.02;7.68;;;;;;;;;;9962565;29;20075;-68
2022/11/01 21:32:56;;;;;;;10.43;7.32;;;;;;;;;;9958435;29;20045;-68
2022/11/01 21:37:56;;;;;;;17.05;8.20;;;;;;;;;;9961619;29;20503;-67
2022/11/01 21:42:54;;;;;;;10.50;8.50;;;;;;;;;;9959827;29;20072;-68
2022/11/01 21:47:53;;;;;;;15.73;8.90;;;;;;;;;;9960217;29;20076;-68
2022/11/01 21:52:51;;;;;;;12.68;7.88;;;;;;;;;;9961178;29;20460;-68
2022/11/01 21:57:51;;;;;;;10.55;6.90;;;;;;;;;;9961074;29;20092;-68
2022/11/01 22:02:49;;;;;;;15.52;7.82;;;;;;;;;;9960572;29;20064;-68
2022/11/01 22:07:47;;;;;;;9.07;7.10;;;;;;;;;;9958975;29;20069;-69
2022/11/01 22:12:45;;;;;;;11.93;7.50;;;;;;;;;;9958989;29;20064;-68
2022/11/01 22:17:45;;;;;;;14.30;7.57;;;;;;;;;;9958982;29;20083;-68
2022/11/01 22:22:43;;;;;;;12.05;8.15;;;;;;;;;;9959955;29;20079;-68
2022/11/01 22:27:41;;;;;;;16.08;7.93;;;;;;;;;;9960023;29;20072;-68
2022/11/01 22:32:39;;;;;;;14.25;8.40;;;;;;;;;;9959353;29;20060;-68
2022/11/01 22:37:39;;;;;;;17.63;8.10;;;;;;;;;;9959085;29;20075;-69
2022/11/01 22:42:37;;;;;;;11.95;7.20;;;;;;;;;;9960114;29;20095;-69
2022/11/01 22:47:35;;;;;;;17.85;8.07;;;;;;;;;;9953442;29;20079;-68
2022/11/01 22:52:35;;;;;;;10.23;7.20;;;;;;;;;;9958949;29;20079;-69
2022/11/01 22:57:36;;;;;;;12.20;8.02;;;;;;;;;;9959073;29;20537;-69
2022/11/01 23:02:36;;;;;;;18.60;7.57;;;;;;;;;;9959135;29;20494;-69
2022/11/01 23:07:36;;;;;;;10.45;7.05;;;;;;;;;;9953630;29;20076;-68
2022/11/01 23:17:51;;;;;;;14.32;7.35;;;;;;;;;;9954851;29;20045;-68
2022/11/01 23:22:50;;;;;;;11.07;7.15;;;;;;;;;;9958143;29;20060;-68
2022/11/01 23:27:49;;;;;;;13.50;7.55;;;;;;;;;;9964982;29;20403;-68
2022/11/01 23:32:47;;;;;;;11.18;7.00;;;;;;;;;;9965884;29;20083;-68
2022/11/01 23:37:46;;;;;;;15.10;8.05;;;;;;;;;;9965616;29;20076;-68
2022/11/01 23:42:44;;;;;;;11.73;6.32;;;;;;;;;;9965762;29;20079;-68
2022/11/01 23:47:44;;;;;;;10.85;7.43;;;;;;;;;;9965511;29;20064;-68
2022/11/01 23:52:43;;;;;;;15.52;8.18;;;;;;;;;;9964539;29;20080;-68
2022/11/01 23:57:41;;;;;;;12.55;8.07;;;;;;;;;;9965518;29;20071;-69
